avis per tempestes more information blitzortung!


avis per Pluja more information rain snow radar


Visita la nostra xarxa de llocs de meteo:

Template documentation
and downloads

And another site



Thunderstorms From: 20-07-2018 17:00 Until: 21-07-2018 01:59 warning for: Thunderstorms Level: Yellow info button
Rain From: 20-07-2018 17:00 Until: 21-07-2018 01:59 warning for: Rain Level: Yellow info button

Pagina Historial Weather Underground text

Diari Resum May 24, 2016 Unitats:  Mètric    Imperial   Tant
« Previous Dia
SegĂźent Dia »
Diari Setmana Mensual Anual Personalitzada
  Maxima: Minima: Media:
Temperatura: -17.8 °C -10.7 °C -7.1 °C
Punt de rosada: -17.8 °C -14 °C -12.8 °C
Humitat: Humidity % 36 % 52 %
Wind Speed: 0 km/h 0 km/h 13.8 km/h
RĂ fegues de vent: 0 km/h - -
Vent:- - SW
Pression baro: 0 hPa 34222.3 hPa -
Precipitacions: 0 mm    
Historical Graphs
 
 
Dades de taula per May 24, 2016
Temps Temperatura Punt de rosada Pression baro Vent Wind Speed RĂ fegues de vent Humitat Rainfall Rate (Hourly)
-17.8 °C -17.8 °C 0 hPa Calm     Humidity % 0 mm
00:00 -10.1 °C -13.9 °C 34635.4 hPa NE 9 km/h 9 km/h 63 % 0 mm
00:05 -10.1 °C -13.9 °C 34635.4 hPa NE 6 km/h 6 km/h 63 % 0 mm
00:10 -10.2 °C -14 °C 34635.4 hPa NNE 6.3 km/h 6.3 km/h 63 % 0 mm
03:20 -10.7 °C -13.1 °C 34533.8 hPa ENE 5.1 km/h 5.1 km/h 75 % 0 mm
03:30 -10.6 °C -13.2 °C 34533.8 hPa NE 2.6 km/h 5.1 km/h 73 % 0 mm
03:40 -10.5 °C -13.1 °C 34533.8 hPa NE 5.1 km/h 5.1 km/h 73 % 0 mm
03:50 -10.4 °C -13.1 °C 34533.8 hPa Calm   7.7 km/h 73 % 0 mm
04:00 -10.1 °C -12.9 °C 34533.8 hPa Calm   5.1 km/h 72 % 0 mm
04:05 -10.1 °C -12.8 °C 34533.8 hPa Calm   7.7 km/h 72 % 0 mm
04:15 -9.9 °C -12.8 °C 34533.8 hPa SW 5.1 km/h 5.1 km/h 71 % 0 mm
04:25 -9.6 °C -12.6 °C 34496.6 hPa Calm   2.6 km/h 70 % 0 mm
04:35 -9.4 °C -12.6 °C 34496.6 hPa West 5.1 km/h 7.7 km/h 69 % 0 mm
05:05 -8.6 °C -11.8 °C 34496.6 hPa East 7.7 km/h 10.3 km/h 68 % 0 mm
05:15 -8 °C -11.7 °C 34496.6 hPa SSW 7.7 km/h 7.7 km/h 65 % 0 mm
05:25 -8.1 °C -12.1 °C 34496.6 hPa SSW 15.6 km/h 15.6 km/h 63 % 0 mm
05:35 -7.8 °C -11.8 °C 34496.6 hPa South 7.7 km/h 7.7 km/h 63 % 0 mm
05:45 -7.4 °C -11.7 °C 34462.7 hPa SW 5.1 km/h 15.6 km/h 61 % 0 mm
05:55 -7.6 °C -12 °C 34462.7 hPa WSW 2.6 km/h 10.3 km/h 60 % 0 mm
06:05 -7.6 °C -12.1 °C 34462.7 hPa SW 7.7 km/h 15.6 km/h 59 % 0 mm
06:15 -7.4 °C -12.1 °C 34462.7 hPa SW 5.1 km/h 12.9 km/h 58 % 0 mm
06:25 -7.3 °C -12.3 °C 34462.7 hPa SSW 7.7 km/h 15.6 km/h 56 % 0 mm
06:35 -6.8 °C -12.2 °C 34462.7 hPa SSW 7.7 km/h 15.6 km/h 54 % 0 mm
06:45 -6.8 °C -12.3 °C 34462.7 hPa WSW 7.7 km/h 20.8 km/h 53 % 0 mm
06:55 -6.7 °C -12.3 °C 34462.7 hPa WSW 15.6 km/h 15.6 km/h 52 % 0 mm
07:05 -6.2 °C -11.9 °C 34462.7 hPa WSW 5.1 km/h 15.6 km/h 52 % 0 mm
07:15 -6.2 °C -12.1 °C 34462.7 hPa SW 15.6 km/h 23.3 km/h 51 % 0 mm
07:45 -5.7 °C -11.9 °C 34462.7 hPa SW 15.6 km/h 15.6 km/h 49 % 0 mm
07:55 -5.7 °C -11.9 °C 34428.8 hPa SW 5.1 km/h 20.8 km/h 49 % 0 mm
08:15 -5.5 °C -12.6 °C 34428.8 hPa WSW 7.7 km/h 20.8 km/h 44 % 0 mm
08:25 -5.5 °C -13 °C 34395 hPa SW 15.6 km/h 25.9 km/h 42 % 0 mm
13:34 -5.7 °C -13 °C 34395 hPa SSW 15 km/h 15 km/h 43 % 0 mm
13:39 -5.6 °C -12.9 °C 34428.8 hPa SSW 15 km/h 15 km/h 43 % 0 mm
13:45 -5.5 °C -13.2 °C 34428.8 hPa SSW 23.8 km/h 23.8 km/h 41 % 0 mm
13:50 -5.7 °C -13.4 °C 34395 hPa SW 18.3 km/h 18.3 km/h 41 % 0 mm
13:55 -5.8 °C -13.5 °C 34395 hPa South 15 km/h 15 km/h 41 % 0 mm
14:00 -5.3 °C -13.1 °C 34395 hPa SSW 23.8 km/h 23.8 km/h 41 % 0 mm
14:05 -5.8 °C -13.7 °C 34395 hPa SW 26.9 km/h 26.9 km/h 40 % 0 mm
14:10 -5.7 °C -13.6 °C 34395 hPa SW 32.8 km/h 32.8 km/h 40 % 0 mm
14:15 -5.6 °C -13.3 °C 34395 hPa SW 20.9 km/h 20.9 km/h 41 % 0 mm
14:20 -5.7 °C -13.4 °C 34395 hPa SSW 20.9 km/h 20.9 km/h 41 % 0 mm
14:25 -5.6 °C -13.4 °C 34395 hPa WSW 32.8 km/h 32.8 km/h 40 % 0 mm
14:30 -5.4 °C -13.2 °C 34395 hPa SW 15 km/h 15 km/h 41 % 0 mm
14:35 -5.3 °C -12.9 °C 34361.1 hPa SW 11.9 km/h 11.9 km/h 42 % 0 mm
14:40 -5 °C -12.7 °C 34361.1 hPa SW 11.9 km/h 11.9 km/h 41 % 0 mm
14:45 -5.1 °C -12.6 °C 34361.1 hPa West 17.9 km/h 17.9 km/h 42 % 0 mm
14:50 -5.1 °C -12.7 °C 34361.1 hPa SW 15 km/h 15 km/h 42 % 0 mm
14:55 -5 °C -12.9 °C 34361.1 hPa SW 23.8 km/h 23.8 km/h 40 % 0 mm
15:00 -4.9 °C -12.9 °C 34361.1 hPa SSW 20.9 km/h 20.9 km/h 40 % 0 mm
15:05 -4.8 °C -12.9 °C 34361.1 hPa SW 17.9 km/h 17.9 km/h 39 % 0 mm
15:10 -4.6 °C -12.8 °C 34361.1 hPa West 15 km/h 15 km/h 39 % 0 mm
15:15 -4.6 °C -13 °C 34361.1 hPa SSW 19.6 km/h 19.6 km/h 38 % 0 mm
15:20 -4.6 °C -12.8 °C 34361.1 hPa SW 15 km/h 15 km/h 39 % 0 mm
15:25 -4.7 °C -13.1 °C 34361.1 hPa SW 18.3 km/h 18.3 km/h 38 % 0 mm
15:30 -4.7 °C -13.5 °C 34361.1 hPa SW 26.9 km/h 26.9 km/h 36 % 0 mm
15:35 -4.8 °C -13.4 °C 34327.3 hPa SW 15 km/h 15 km/h 37 % 0 mm
15:40 -4.7 °C -13.3 °C 34327.3 hPa SW 20.9 km/h 20.9 km/h 37 % 0 mm
15:45 -4.7 °C -13.1 °C 34327.3 hPa South 20.9 km/h 20.9 km/h 38 % 0 mm
15:50 -4.8 °C -13.2 °C 34327.3 hPa SW 22.5 km/h 22.5 km/h 38 % 0 mm
15:55 -5 °C -13.4 °C 34327.3 hPa WSW 32.8 km/h 32.8 km/h 38 % 0 mm
16:00 -4.9 °C -13.3 °C 34327.3 hPa SW 20.9 km/h 20.9 km/h 38 % 0 mm
16:05 -4.6 °C -12.8 °C 34327.3 hPa SW 11.9 km/h 11.9 km/h 39 % 0 mm
16:10 -4.9 °C -13.3 °C 34327.3 hPa SW 20.9 km/h 20.9 km/h 38 % 0 mm
16:15 -4.9 °C -13.3 °C 34327.3 hPa SW 15.6 km/h 33.6 km/h 38 % 0 mm
16:25 -5 °C -13.6 °C 34327.3 hPa SSW 26.9 km/h 26.9 km/h 37 % 0 mm
16:30 -4.9 °C -13.1 °C 34327.3 hPa SW 15.6 km/h 25.9 km/h 39 % 0 mm
16:35 -5.1 °C -13.2 °C 34327.3 hPa SW 29.5 km/h 29.5 km/h 39 % 0 mm
16:40 -5 °C -13.2 °C 34327.3 hPa West 29.8 km/h 29.8 km/h 39 % 0 mm
16:45 -5.3 °C -13.4 °C 34327.3 hPa SSW 22 km/h 22 km/h 39 % 0 mm
16:55 -5.2 °C -13.2 °C 34327.3 hPa SW 15.6 km/h 28.5 km/h 40 % 0 mm
17:00 -5.2 °C -13.2 °C 34327.3 hPa South 17.9 km/h 17.9 km/h 40 % 0 mm
17:05 -5.2 °C -13.2 °C 34293.4 hPa SSW 12.9 km/h 23.3 km/h 40 % 0 mm
17:10 -5.4 °C -13.3 °C 34293.4 hPa SW 18.3 km/h 18.3 km/h 40 % 0 mm
17:15 -5.2 °C -13.2 °C 34293.4 hPa SW 23.8 km/h 23.8 km/h 40 % 0 mm
17:20 -5.3 °C -13.2 °C 34293.4 hPa SW 26.9 km/h 26.9 km/h 40 % 0 mm
17:25 -5.6 °C -13.3 °C 34293.4 hPa SW 7.7 km/h 33.6 km/h 41 % 0 mm
17:30 -5.4 °C -12.9 °C 34293.4 hPa SSW 15 km/h 17.9 km/h 42 % 0 mm
17:35 -5.4 °C -12.9 °C 34293.4 hPa SW 25.1 km/h 25.1 km/h 42 % 0 mm
17:40 -5.5 °C -13.2 °C 34293.4 hPa SW 11.9 km/h 11.9 km/h 41 % 0 mm
17:45 -5.5 °C -13 °C 34293.4 hPa SSW 20.9 km/h 20.9 km/h 42 % 0 mm
17:50 -5.6 °C -13.1 °C 34256.2 hPa South 20.9 km/h 20.9 km/h 42 % 0 mm
17:55 -5.7 °C -12.9 °C 34256.2 hPa SSW 29.8 km/h 29.8 km/h 43 % 0 mm
18:00 -5.9 °C -13.2 °C 34256.2 hPa SE 20.9 km/h 20.9 km/h 43 % 0 mm
18:05 -5.8 °C -13.1 °C 34293.4 hPa SW 15 km/h 15 km/h 43 % 0 mm
18:10 -5.8 °C -13.1 °C 34293.4 hPa SSW 20.9 km/h 20.9 km/h 43 % 0 mm
18:15 -5.9 °C -13.2 °C 34293.4 hPa WSW 15 km/h 15 km/h 43 % 0 mm
18:20 -6.1 °C -13.2 °C 34256.2 hPa SSW 35.7 km/h 35.7 km/h 44 % 0 mm
18:25 -6.2 °C -13.1 °C 34256.2 hPa SSW 32.8 km/h 32.8 km/h 45 % 0 mm
18:30 -6.2 °C -12.9 °C 34256.2 hPa SSW 23.8 km/h 23.8 km/h 46 % 0 mm
18:35 -6.2 °C -12.9 °C 34256.2 hPa SSW 17.9 km/h 17.9 km/h 46 % 0 mm
18:40 -6.2 °C -12.7 °C 34256.2 hPa WSW 20.3 km/h 20.3 km/h 47 % 0 mm
18:45 -6.4 °C -12.9 °C 34256.2 hPa South 20.9 km/h 20.9 km/h 47 % 0 mm
18:50 -6.4 °C -12.8 °C 34256.2 hPa SW 20.9 km/h 20.9 km/h 48 % 0 mm
18:55 -6.4 °C -12.8 °C 34256.2 hPa WSW 17.9 km/h 17.9 km/h 48 % 0 mm
19:00 -6.3 °C -12.7 °C 34256.2 hPa SW 15.6 km/h 15.6 km/h 48 % 0 mm
19:05 -6.4 °C -12.8 °C 34256.2 hPa South 23.8 km/h 23.8 km/h 48 % 0 mm
19:10 -6.4 °C -12.6 °C 34256.2 hPa WSW 20.9 km/h 20.9 km/h 49 % 0 mm
19:15 -6.6 °C -12.7 °C 34256.2 hPa SW 17.9 km/h 17.9 km/h 49 % 0 mm
19:20 -6.7 °C -12.8 °C 34256.2 hPa SSW 15 km/h 15 km/h 49 % 0 mm
19:25 -6.8 °C -12.8 °C 34256.2 hPa SW 23.8 km/h 23.8 km/h 50 % 0 mm
19:30 -6.9 °C -12.9 °C 34256.2 hPa SSW 15 km/h 15 km/h 50 % 0 mm
19:35 -6.9 °C -12.8 °C 34256.2 hPa SW 15 km/h 15 km/h 50 % 0 mm
19:45 -7 °C -12.8 °C 34256.2 hPa SSW 23.8 km/h 23.8 km/h 51 % 0 mm
19:50 -7.1 °C -12.8 °C 34256.2 hPa SW 7.7 km/h 25.9 km/h 51 % 0 mm
19:55 -7.2 °C -12.8 °C 34256.2 hPa SSW 17.9 km/h 17.9 km/h 52 % 0 mm
20:00 -7.2 °C -12.8 °C 34256.2 hPa SW 9 km/h 9 km/h 52 % 0 mm
20:05 -7.2 °C -12.8 °C 34256.2 hPa WSW 15.3 km/h 15.3 km/h 52 % 0 mm
20:10 -7.4 °C -12.7 °C 34256.2 hPa SW 15 km/h 15 km/h 54 % 0 mm
20:15 -7.4 °C -12.6 °C 34256.2 hPa SW 20.9 km/h 20.9 km/h 55 % 0 mm
20:20 -7.6 °C -12.6 °C 34256.2 hPa SW 15 km/h 15 km/h 56 % 0 mm
20:25 -7.7 °C -12.4 °C 34256.2 hPa WSW 17.9 km/h 17.9 km/h 57 % 0 mm
20:30 -7.7 °C -12.3 °C 34256.2 hPa WSW 15.6 km/h 15.6 km/h 58 % 0 mm
20:35 -7.8 °C -12.4 °C 34256.2 hPa WSW 11.9 km/h 11.9 km/h 58 % 0 mm
20:40 -7.8 °C -12.4 °C 34256.2 hPa SSW 6 km/h 6 km/h 58 % 0 mm
20:45 -7.9 °C -12.4 °C 34256.2 hPa WSW 11.9 km/h 11.9 km/h 59 % 0 mm
20:50 -7.9 °C -12.4 °C 34256.2 hPa SSW 11.9 km/h 11.9 km/h 59 % 0 mm
20:55 -8 °C -12.5 °C 34256.2 hPa SW 11.9 km/h 11.9 km/h 59 % 0 mm
21:00 -8.1 °C -12.6 °C 34256.2 hPa SW 7.7 km/h 18.2 km/h 59 % 0 mm
21:05 -8.2 °C -12.7 °C 34256.2 hPa SSW 16.1 km/h 16.1 km/h 59 % 0 mm
21:10 -8.2 °C -12.6 °C 34256.2 hPa SW 11.9 km/h 11.9 km/h 60 % 0 mm
21:15 -8.3 °C -12.6 °C 34256.2 hPa SW 6 km/h 6 km/h 60 % 0 mm
21:20 -8.3 °C -12.7 °C 34222.3 hPa SW 15 km/h 15 km/h 60 % 0 mm
21:25 -8.4 °C -12.6 °C 34222.3 hPa SW 9 km/h 9 km/h 61 % 0 mm
21:30 -8.4 °C -12.5 °C 34222.3 hPa SSW 15 km/h 15 km/h 62 % 0 mm
21:40 -8.5 °C -12.6 °C 34256.2 hPa SW 6.3 km/h 6.3 km/h 62 % 0 mm
21:45 -8.6 °C -12.6 °C 34256.2 hPa SW 9 km/h 9 km/h 62 % 0 mm
21:50 -8.6 °C -12.6 °C 34256.2 hPa WSW 9 km/h 9 km/h 62 % 0 mm
21:55 -8.6 °C -12.6 °C 34256.2 hPa SW 6 km/h 6 km/h 63 % 0 mm
22:00 -8.7 °C -12.6 °C 34256.2 hPa WSW 3.1 km/h   63 % 0 mm
22:05 -8.7 °C -12.6 °C 34256.2 hPa SW 8 km/h 8 km/h 63 % 0 mm
22:10 -8.7 °C -12.7 °C 34256.2 hPa SW 9 km/h 9 km/h 63 % 0 mm
22:15 -8.7 °C -12.5 °C 34256.2 hPa West 6 km/h   64 % 0 mm
22:20 -8.8 °C -12.4 °C 34256.2 hPa SW 9 km/h 9 km/h 65 % 0 mm
22:25 -8.8 °C -12.5 °C 34256.2 hPa SW 9 km/h 9 km/h 65 % 0 mm
22:35 -8.9 °C -12.4 °C 34256.2 hPa WSW 6 km/h 6 km/h 66 % 0 mm
22:40 -8.9 °C -12.4 °C 34256.2 hPa WSW 6 km/h 6 km/h 66 % 0 mm
22:45 -8.9 °C -12.4 °C 34256.2 hPa SW 6.8 km/h 6.8 km/h 66 % 0 mm
22:50 -8.9 °C -12.3 °C 34256.2 hPa SSW 6.8 km/h 6.8 km/h 67 % 0 mm
22:55 -9 °C -12.4 °C 34256.2 hPa West 5.6 km/h 5.6 km/h 67 % 0 mm
23:00 -9 °C -12.3 °C 34256.2 hPa WSW 3.1 km/h 3.1 km/h 68 % 0 mm
23:05 -9.1 °C -12.2 °C 34256.2 hPa WSW 3.7 km/h 3.7 km/h 69 % 0 mm
23:10 -9.1 °C -12.4 °C 34256.2 hPa SW 2.6 km/h 5.1 km/h 68 % 0 mm
23:20 -9.1 °C -12.3 °C 34256.2 hPa WSW 3.7 km/h 3.7 km/h 69 % 0 mm
23:25 -9.1 °C -12.3 °C 34256.2 hPa SW 3.7 km/h 3.7 km/h 69 % 0 mm
23:30 -9.2 °C -12.3 °C 34256.2 hPa SW 6 km/h 6 km/h 69 % 0 mm
23:35 -9.2 °C -12.1 °C 34256.2 hPa Calm     71 % 0 mm
23:40 -9.2 °C -12.3 °C 34256.2 hPa WSW 6 km/h 6 km/h 70 % 0 mm
23:45 -9.2 °C -12.1 °C 34256.2 hPa WSW 3.1 km/h 3.1 km/h 71 % 0 mm
23:50 -9.2 °C -12.1 °C 34293.4 hPa WSW 3.1 km/h   71 % 0 mm
23:55 -9.2 °C -12.1 °C 34293.4 hPa WSW 5.1 km/h 7.7 km/h 71 % 0 mm
Meteo Sesrovires
Elogis d' Weather Underground - 2 mb

Guio original per  Jim McMurry - jmcmurry@mwt.net Adaptat per a la plantilla per  Wim van der Kuil - Leuven-Template.eu

Trobareu la nostra informacio del temps tambe a:

Weather Underground

AWEKAS